createdAt,value
2023-05-13T00:00:06.374Z,954.7
2023-05-13T00:01:08.057Z,954.7
2023-05-13T00:02:09.743Z,954.7
2023-05-13T00:03:12.151Z,954.7
2023-05-13T00:04:14.156Z,954.7
2023-05-13T00:05:15.768Z,954.7
2023-05-13T00:06:17.477Z,954.7
2023-05-13T00:07:19.260Z,954.7
2023-05-13T00:08:20.911Z,954.7
2023-05-13T00:09:22.579Z,954.7
2023-05-13T00:10:24.670Z,954.7
2023-05-13T00:11:26.501Z,954.7
2023-05-13T00:12:28.335Z,954.6
2023-05-13T00:13:30.174Z,954.6
2023-05-13T00:14:32.102Z,954.6
2023-05-13T00:15:33.862Z,954.7
2023-05-13T00:16:35.853Z,954.6
2023-05-13T00:17:37.856Z,954.7
2023-05-13T00:18:39.591Z,954.7
2023-05-13T00:19:41.249Z,954.6
2023-05-13T00:20:42.914Z,954.6
2023-05-13T00:21:44.527Z,954.6
2023-05-13T00:22:46.130Z,954.6
2023-05-13T00:23:47.703Z,954.6
2023-05-13T00:24:49.516Z,954.6
2023-05-13T00:25:51.467Z,954.6
2023-05-13T00:26:53.212Z,954.6
2023-05-13T00:27:54.843Z,954.6
2023-05-13T00:28:56.488Z,954.6
2023-05-13T00:29:58.376Z,954.6
2023-05-13T00:31:00.235Z,954.6
2023-05-13T00:32:02.435Z,954.6
2023-05-13T00:33:04.663Z,954.6
2023-05-13T00:34:06.388Z,954.6
2023-05-13T00:35:08.077Z,954.6
2023-05-13T00:36:09.758Z,954.6
2023-05-13T00:37:11.544Z,954.6
2023-05-13T00:38:13.177Z,954.6
2023-05-13T00:39:14.803Z,954.6
2023-05-13T00:40:19.712Z,954.6
2023-05-13T00:41:21.916Z,954.5
2023-05-13T00:42:23.533Z,954.6
2023-05-13T00:43:25.202Z,954.6
2023-05-13T00:44:26.912Z,954.5
2023-05-13T00:45:29.115Z,954.6
2023-05-13T00:46:31.241Z,954.6
2023-05-13T00:47:33.251Z,954.6
2023-05-13T00:48:35.016Z,954.5
2023-05-13T00:49:36.681Z,954.5
2023-05-13T00:50:38.251Z,954.6
2023-05-13T00:51:39.882Z,954.6
2023-05-13T00:52:41.615Z,954.6
2023-05-13T00:53:43.270Z,954.6
2023-05-13T00:54:45.014Z,954.6
2023-05-13T00:55:46.855Z,954.6
2023-05-13T00:56:48.914Z,954.7
2023-05-13T00:57:50.975Z,954.7
2023-05-13T00:58:52.724Z,954.7
2023-05-13T00:59:54.311Z,954.7
2023-05-13T01:00:56.215Z,954.6
2023-05-13T01:01:58.373Z,954.6
2023-05-13T01:03:00.744Z,954.6
2023-05-13T01:04:02.784Z,954.6
2023-05-13T01:05:04.529Z,954.6
2023-05-13T01:06:06.180Z,954.5
2023-05-13T01:07:07.934Z,954.5
2023-05-13T01:08:09.879Z,954.5
2023-05-13T01:09:11.721Z,954.5
2023-05-13T01:10:13.677Z,954.5
2023-05-13T01:11:15.403Z,954.5
2023-05-13T01:12:17.061Z,954.5
2023-05-13T01:13:18.822Z,954.5
2023-05-13T01:14:20.596Z,954.5
2023-05-13T01:15:22.344Z,954.5
2023-05-13T01:16:24.222Z,954.5
2023-05-13T01:17:26.366Z,954.5
2023-05-13T01:18:28.142Z,954.5
2023-05-13T01:19:30.321Z,954.5
2023-05-13T01:20:32.180Z,954.5
2023-05-13T01:21:33.916Z,954.5
2023-05-13T01:22:35.522Z,954.5
2023-05-13T01:23:37.249Z,954.5
2023-05-13T01:24:39.286Z,954.5
2023-05-13T01:25:40.985Z,954.5
2023-05-13T01:26:42.669Z,954.5
2023-05-13T01:27:44.512Z,954.6
2023-05-13T01:28:46.370Z,954.6
2023-05-13T01:29:48.173Z,954.7
2023-05-13T01:30:50.035Z,954.7
2023-05-13T01:31:51.851Z,954.7
2023-05-13T01:32:53.632Z,954.7
2023-05-13T01:33:55.489Z,954.8
2023-05-13T01:34:57.157Z,954.7
2023-05-13T01:35:59.110Z,954.8
2023-05-13T01:37:00.968Z,954.7
2023-05-13T01:38:02.800Z,954.7
2023-05-13T01:39:04.662Z,954.7
2023-05-13T01:40:33.201Z,954.7
2023-05-13T01:41:35.294Z,954.7
2023-05-13T01:42:37.008Z,954.6
2023-05-13T01:43:38.789Z,954.6
2023-05-13T01:44:40.641Z,954.7
2023-05-13T01:45:42.595Z,954.7
2023-05-13T01:46:44.613Z,954.7
2023-05-13T01:47:46.733Z,954.7
2023-05-13T01:48:48.589Z,954.7
2023-05-13T01:49:50.393Z,954.7
2023-05-13T01:50:52.190Z,954.7
2023-05-13T01:51:53.794Z,954.7
2023-05-13T01:52:55.542Z,954.7
2023-05-13T01:53:57.378Z,954.6
2023-05-13T01:54:59.239Z,954.7
2023-05-13T01:56:00.884Z,954.7
2023-05-13T01:57:02.637Z,954.7
2023-05-13T01:58:04.472Z,954.7
2023-05-13T01:59:06.219Z,954.7
2023-05-13T02:00:07.917Z,954.6
2023-05-13T02:01:09.594Z,954.7
2023-05-13T02:02:11.652Z,954.7
2023-05-13T02:03:14.292Z,954.7
2023-05-13T02:04:16.501Z,954.7
2023-05-13T02:05:18.239Z,954.7
2023-05-13T02:06:19.991Z,954.7
2023-05-13T02:07:21.785Z,954.7
2023-05-13T02:08:23.391Z,954.7
2023-05-13T02:09:24.958Z,954.6
2023-05-13T02:10:26.783Z,954.6
2023-05-13T02:11:28.728Z,954.6
2023-05-13T02:12:30.477Z,954.7
2023-05-13T02:13:32.192Z,954.6
2023-05-13T02:14:33.784Z,954.6
2023-05-13T02:15:35.550Z,954.7
2023-05-13T02:16:37.508Z,954.7
2023-05-13T02:17:39.569Z,954.7
2023-05-13T02:18:42.073Z,954.8
2023-05-13T02:19:43.835Z,954.7
2023-05-13T02:20:45.590Z,954.8
2023-05-13T02:21:47.539Z,954.8
2023-05-13T02:22:49.406Z,954.8
2023-05-13T02:23:51.236Z,954.8
2023-05-13T02:24:53.032Z,954.7
2023-05-13T02:25:54.707Z,954.7
2023-05-13T02:26:56.377Z,954.7
2023-05-13T02:27:58.336Z,954.7
2023-05-13T02:29:00.179Z,954.8
2023-05-13T02:30:02.050Z,954.7
2023-05-13T02:31:03.774Z,954.8
2023-05-13T02:32:05.676Z,954.8
2023-05-13T02:33:07.917Z,954.8
2023-05-13T02:34:09.854Z,954.8
2023-05-13T02:35:11.658Z,954.8
2023-05-13T02:36:13.250Z,954.8
2023-05-13T02:37:14.983Z,954.8
2023-05-13T02:38:16.812Z,954.8
2023-05-13T02:39:18.601Z,954.8
2023-05-13T02:40:21.007Z,954.8
2023-05-13T02:41:23.304Z,954.8
2023-05-13T02:42:25.057Z,954.8
2023-05-13T02:43:27.009Z,954.8
2023-05-13T02:44:28.857Z,954.8
2023-05-13T02:45:30.817Z,954.8
2023-05-13T02:46:32.972Z,954.8
2023-05-13T02:47:34.885Z,954.8
2023-05-13T02:48:36.544Z,954.8
2023-05-13T02:49:38.179Z,954.8
2023-05-13T02:50:39.953Z,954.8
2023-05-13T02:51:41.596Z,954.7
2023-05-13T02:52:43.456Z,954.8
2023-05-13T02:53:45.300Z,954.7
2023-05-13T02:54:47.235Z,954.8
2023-05-13T02:55:48.904Z,954.8
2023-05-13T02:56:50.507Z,954.8
2023-05-13T02:57:52.188Z,954.8
2023-05-13T02:58:54.041Z,954.8
2023-05-13T02:59:55.991Z,954.8
2023-05-13T03:00:57.956Z,954.9
2023-05-13T03:01:59.894Z,954.9
2023-05-13T03:03:02.158Z,954.9
2023-05-13T03:04:04.326Z,954.9
2023-05-13T03:05:06.289Z,954.9
2023-05-13T03:06:08.116Z,955
2023-05-13T03:07:10.069Z,955
2023-05-13T03:08:11.814Z,955
2023-05-13T03:09:13.670Z,955
2023-05-13T03:10:15.511Z,955.1
2023-05-13T03:11:17.503Z,955.1
2023-05-13T03:12:19.315Z,955.1
2023-05-13T03:13:21.068Z,955.1
2023-05-13T03:14:22.923Z,955.1
2023-05-13T03:15:24.896Z,955.1
2023-05-13T03:16:26.888Z,955.1
2023-05-13T03:17:28.876Z,955.1
2023-05-13T03:18:33.533Z,955.1
2023-05-13T03:19:35.237Z,955.1
2023-05-13T03:20:37.215Z,955.1
2023-05-13T03:21:39.169Z,955.1
2023-05-13T03:22:40.991Z,955.1
2023-05-13T03:23:42.961Z,955.1
2023-05-13T03:24:44.797Z,955.1
2023-05-13T03:25:46.760Z,955
2023-05-13T03:26:48.708Z,955.1
2023-05-13T03:27:50.463Z,955
2023-05-13T03:28:52.199Z,955
2023-05-13T03:29:54.154Z,955.1
2023-05-13T03:30:56.194Z,955.1
2023-05-13T03:32:00.818Z,955.1
2023-05-13T03:33:02.715Z,955.1
2023-05-13T03:34:04.621Z,955.1
2023-05-13T03:35:06.494Z,955.2
2023-05-13T03:36:08.362Z,955.2
2023-05-13T03:37:10.171Z,955.2
2023-05-13T03:38:12.121Z,955.1
2023-05-13T03:39:13.870Z,955.2
2023-05-13T03:40:15.717Z,955.2
2023-05-13T03:41:17.682Z,955.2
2023-05-13T03:42:19.624Z,955.2
2023-05-13T03:43:21.398Z,955.2
2023-05-13T03:44:23.125Z,955.3
2023-05-13T03:45:24.976Z,955.3
2023-05-13T03:46:26.735Z,955.3
2023-05-13T03:47:28.909Z,955.3
2023-05-13T03:48:30.832Z,955.3
2023-05-13T03:49:32.622Z,955.3
2023-05-13T03:50:34.314Z,955.3
2023-05-13T03:51:36.210Z,955.3
2023-05-13T03:52:38.028Z,955.3
2023-05-13T03:53:39.881Z,955.3
2023-05-13T03:54:41.840Z,955.3
2023-05-13T03:55:43.567Z,955.3
2023-05-13T03:56:45.261Z,955.3
2023-05-13T03:57:46.913Z,955.3
2023-05-13T03:58:48.502Z,955.3
2023-05-13T03:59:50.113Z,955.3
2023-05-13T04:00:51.694Z,955.4
2023-05-13T04:01:53.615Z,955.4
2023-05-13T04:02:55.905Z,955.4
2023-05-13T04:03:57.871Z,955.4
2023-05-13T04:04:59.714Z,955.4
2023-05-13T04:06:01.471Z,955.4
2023-05-13T04:07:03.452Z,955.5
2023-05-13T04:08:05.475Z,955.5
2023-05-13T04:09:07.211Z,955.5
2023-05-13T04:10:08.972Z,955.6
2023-05-13T04:11:10.596Z,955.6
2023-05-13T04:12:12.279Z,955.6
2023-05-13T04:13:13.935Z,955.6
2023-05-13T04:14:15.603Z,955.6
2023-05-13T04:15:17.285Z,955.6
2023-05-13T04:16:19.088Z,955.6
2023-05-13T04:17:21.165Z,955.6
2023-05-13T04:18:23.170Z,955.6
2023-05-13T04:19:25.005Z,955.6
2023-05-13T04:20:26.838Z,955.6
2023-05-13T04:21:28.660Z,955.6
2023-05-13T04:22:30.372Z,955.6
2023-05-13T04:23:32.119Z,955.6
2023-05-13T04:24:33.848Z,955.5
2023-05-13T04:25:35.692Z,955.6
2023-05-13T04:26:37.441Z,955.6
2023-05-13T04:27:39.184Z,955.6
2023-05-13T04:28:40.948Z,955.7
2023-05-13T04:29:42.568Z,955.7
2023-05-13T04:30:44.332Z,955.7
2023-05-13T04:31:46.442Z,955.7
2023-05-13T04:32:48.679Z,955.7
2023-05-13T04:33:50.906Z,955.7
2023-05-13T04:34:52.741Z,955.6
2023-05-13T04:35:54.689Z,955.7
2023-05-13T04:36:56.546Z,955.7
2023-05-13T04:37:58.430Z,955.7
2023-05-13T04:39:00.211Z,955.8
2023-05-13T04:40:02.007Z,955.8
2023-05-13T04:41:03.868Z,955.8
2023-05-13T04:42:05.705Z,955.8
2023-05-13T04:43:07.554Z,955.8
2023-05-13T04:44:09.394Z,955.8
2023-05-13T04:45:11.261Z,955.8
2023-05-13T04:46:13.170Z,955.8
2023-05-13T04:47:15.051Z,955.8
2023-05-13T04:48:16.898Z,955.8
2023-05-13T04:49:19.667Z,955.8
2023-05-13T04:50:23.789Z,955.8
2023-05-13T04:51:27.658Z,955.8
2023-05-13T04:52:30.388Z,955.8
2023-05-13T04:53:32.146Z,955.8
2023-05-13T04:54:33.803Z,955.8
2023-05-13T04:55:35.520Z,955.8
2023-05-13T04:56:37.240Z,955.8
2023-05-13T04:57:38.953Z,955.8
2023-05-13T04:58:40.937Z,955.8
2023-05-13T04:59:42.890Z,955.7
2023-05-13T05:00:44.739Z,955.7
2023-05-13T05:01:46.728Z,955.7
2023-05-13T05:02:48.893Z,955.7
2023-05-13T05:03:51.122Z,955.7
2023-05-13T05:04:52.958Z,955.7
2023-05-13T05:05:54.814Z,955.7
2023-05-13T05:06:56.646Z,955.7
2023-05-13T05:07:58.500Z,955.7
2023-05-13T05:09:00.386Z,955.7
2023-05-13T05:10:02.415Z,955.6
2023-05-13T05:11:04.254Z,955.6
2023-05-13T05:12:05.922Z,955.6
2023-05-13T05:13:07.757Z,955.6
2023-05-13T05:14:09.698Z,955.6
2023-05-13T05:15:11.463Z,955.6
2023-05-13T05:16:13.311Z,955.7
2023-05-13T05:17:15.260Z,955.7
2023-05-13T05:18:19.897Z,955.7
2023-05-13T05:19:21.971Z,955.7
2023-05-13T05:20:24.125Z,955.7
2023-05-13T05:21:26.037Z,955.7
2023-05-13T05:22:27.899Z,955.7
2023-05-13T05:23:29.756Z,955.7
2023-05-13T05:24:31.758Z,955.6
2023-05-13T05:25:33.747Z,955.7
2023-05-13T05:26:35.589Z,955.7
2023-05-13T05:27:37.445Z,955.7
2023-05-13T05:28:39.152Z,955.8
2023-05-13T05:29:41.139Z,955.8
2023-05-13T05:30:43.000Z,955.8
2023-05-13T05:31:44.973Z,955.8
2023-05-13T05:32:46.947Z,955.8
2023-05-13T05:33:48.853Z,955.7
2023-05-13T05:34:50.585Z,955.7
2023-05-13T05:35:52.212Z,955.7
2023-05-13T05:36:53.801Z,955.7
2023-05-13T05:37:55.539Z,955.7
2023-05-13T05:38:57.366Z,955.7
2023-05-13T05:39:59.383Z,955.7
2023-05-13T05:41:01.180Z,955.7
2023-05-13T05:42:03.031Z,955.7
2023-05-13T05:43:04.777Z,955.7
2023-05-13T05:44:06.647Z,955.7
2023-05-13T05:45:08.590Z,955.8
2023-05-13T05:46:10.566Z,955.8
2023-05-13T05:47:12.504Z,955.8
2023-05-13T05:48:14.266Z,955.8
2023-05-13T05:49:16.087Z,955.8
2023-05-13T05:50:17.903Z,955.8
2023-05-13T05:51:19.684Z,955.8
2023-05-13T05:52:21.636Z,955.7
2023-05-13T05:53:23.486Z,955.7
2023-05-13T05:54:25.473Z,955.7
2023-05-13T05:55:27.311Z,955.7
2023-05-13T05:56:29.148Z,955.7
2023-05-13T05:57:31.086Z,955.7
2023-05-13T05:58:32.885Z,955.7
2023-05-13T05:59:34.520Z,955.7
2023-05-13T06:00:36.244Z,955.7
2023-05-13T06:01:37.978Z,955.8
2023-05-13T06:02:40.430Z,955.8
2023-05-13T06:03:42.541Z,955.8
2023-05-13T06:04:45.017Z,955.7
2023-05-13T06:05:47.022Z,955.8
2023-05-13T06:06:49.131Z,955.8
2023-05-13T06:07:51.143Z,955.8
2023-05-13T06:08:52.876Z,955.8
2023-05-13T06:09:54.657Z,955.8
2023-05-13T06:10:56.616Z,955.8
2023-05-13T06:11:58.534Z,955.8
2023-05-13T06:13:00.500Z,955.8
2023-05-13T06:14:02.331Z,955.7
2023-05-13T06:15:04.191Z,955.8
2023-05-13T06:16:06.154Z,955.8
2023-05-13T06:17:07.992Z,955.8
2023-05-13T06:18:10.075Z,955.8
2023-05-13T06:19:12.214Z,955.8
2023-05-13T06:20:14.461Z,955.8
2023-05-13T06:21:16.317Z,955.8
2023-05-13T06:22:18.171Z,955.8
2023-05-13T06:23:20.020Z,955.8
2023-05-13T06:24:21.769Z,955.8
2023-05-13T06:25:23.596Z,955.8
2023-05-13T06:26:25.602Z,955.8
2023-05-13T06:27:27.403Z,955.8
2023-05-13T06:28:29.252Z,955.8
2023-05-13T06:29:31.113Z,955.8
2023-05-13T06:30:32.937Z,955.8
2023-05-13T06:31:34.888Z,955.9
2023-05-13T06:32:40.959Z,955.9
2023-05-13T06:33:59.400Z,955.9
2023-05-13T06:35:01.085Z,956
2023-05-13T06:36:02.892Z,956
2023-05-13T06:37:04.743Z,955.9
2023-05-13T06:38:06.467Z,955.9
2023-05-13T06:39:08.361Z,955.9
2023-05-13T06:40:10.089Z,955.9
2023-05-13T06:41:11.886Z,955.9
2023-05-13T06:42:14.845Z,955.9
2023-05-13T06:43:16.881Z,955.9
2023-05-13T06:44:18.715Z,955.9
2023-05-13T06:45:20.562Z,956
2023-05-13T06:46:22.741Z,956
2023-05-13T06:47:24.906Z,955.9
2023-05-13T06:48:27.045Z,955.9
2023-05-13T06:49:28.888Z,955.9
2023-05-13T06:50:33.644Z,955.9
2023-05-13T06:51:35.456Z,955.9
2023-05-13T06:52:37.435Z,955.9
2023-05-13T06:53:41.199Z,955.9
2023-05-13T06:54:43.054Z,955.9
2023-05-13T06:55:44.824Z,955.9
2023-05-13T06:56:46.565Z,955.9
2023-05-13T06:57:48.414Z,955.9
2023-05-13T06:58:50.054Z,955.9
2023-05-13T06:59:51.667Z,955.9
2023-05-13T07:00:53.573Z,955.9
2023-05-13T07:01:55.511Z,955.9
2023-05-13T07:02:57.495Z,955.9
2023-05-13T07:03:59.646Z,955.9
2023-05-13T07:05:01.452Z,955.9
2023-05-13T07:06:03.214Z,955.9
2023-05-13T07:07:04.858Z,955.9
2023-05-13T07:08:06.674Z,955.9
2023-05-13T07:09:09.271Z,955.9
2023-05-13T07:10:11.186Z,955.9
2023-05-13T07:11:13.008Z,955.9
2023-05-13T07:12:14.805Z,955.9
2023-05-13T07:13:16.684Z,956
2023-05-13T07:14:18.603Z,955.9
2023-05-13T07:15:21.204Z,956
2023-05-13T07:16:23.445Z,956
2023-05-13T07:17:25.357Z,956
2023-05-13T07:18:27.964Z,956
2023-05-13T07:19:30.017Z,956
2023-05-13T07:20:31.806Z,956
2023-05-13T07:21:33.611Z,956
2023-05-13T07:22:35.465Z,956.1
2023-05-13T07:23:37.306Z,956
2023-05-13T07:24:39.267Z,956.1
2023-05-13T07:25:41.216Z,956.1
2023-05-13T07:26:42.929Z,956.1
2023-05-13T07:27:44.712Z,956.1
2023-05-13T07:28:46.482Z,956.1
2023-05-13T07:29:48.610Z,956.1
2023-05-13T07:30:50.590Z,956.1
2023-05-13T07:31:52.413Z,956.1
2023-05-13T07:32:54.599Z,956.1
2023-05-13T07:33:56.424Z,956.1
2023-05-13T07:34:58.166Z,956.2
2023-05-13T07:36:00.116Z,956.2
2023-05-13T07:37:02.900Z,956.2
2023-05-13T07:38:04.848Z,956.2
2023-05-13T07:39:07.512Z,956.1
2023-05-13T07:40:09.286Z,956.2
2023-05-13T07:41:11.126Z,956.1
2023-05-13T07:42:13.073Z,956.2
2023-05-13T07:43:14.920Z,956.1
2023-05-13T07:44:16.782Z,956.1
2023-05-13T07:45:18.581Z,956.1
2023-05-13T07:46:20.483Z,956.1
2023-05-13T07:47:22.622Z,956.2
2023-05-13T07:48:24.525Z,956.1
2023-05-13T07:49:26.104Z,956.1
2023-05-13T07:50:27.738Z,956.1
2023-05-13T07:51:29.532Z,956.2
2023-05-13T07:52:31.367Z,956.1
2023-05-13T07:53:33.111Z,956.2
2023-05-13T07:54:34.975Z,956.1
2023-05-13T07:55:36.713Z,956.2
2023-05-13T07:56:38.593Z,956.2
2023-05-13T07:57:40.313Z,956.2
2023-05-13T07:58:42.155Z,956.2
2023-05-13T07:59:45.381Z,956.2
2023-05-13T08:00:47.139Z,956.2
2023-05-13T08:01:48.720Z,956.2
2023-05-13T08:02:50.929Z,956.2
2023-05-13T08:03:53.570Z,956.2
2023-05-13T08:04:55.662Z,956.2
2023-05-13T08:05:57.542Z,956.2
2023-05-13T08:06:59.229Z,956.1
2023-05-13T08:08:00.886Z,956.1
2023-05-13T08:09:02.645Z,956.1
2023-05-13T08:10:04.567Z,956.2
2023-05-13T08:11:06.300Z,956.1
2023-05-13T08:12:08.150Z,956.1
2023-05-13T08:13:09.902Z,956.2
2023-05-13T08:14:11.758Z,956.2
2023-05-13T08:15:13.535Z,956.2
2023-05-13T08:16:15.510Z,956.2
2023-05-13T08:17:17.414Z,956.1
2023-05-13T08:18:19.143Z,956.1
2023-05-13T08:19:21.313Z,956.1
2023-05-13T08:20:23.364Z,956.1
2023-05-13T08:21:25.208Z,956.1
2023-05-13T08:22:27.076Z,956
2023-05-13T08:23:46.399Z,956
2023-05-13T08:24:48.270Z,956
2023-05-13T08:25:50.017Z,956
2023-05-13T08:26:51.718Z,956
2023-05-13T08:27:55.924Z,956.1
2023-05-13T08:28:57.514Z,956.1
2023-05-13T08:29:59.159Z,956.1
2023-05-13T08:31:00.960Z,956
2023-05-13T08:32:03.194Z,955.9
2023-05-13T08:33:05.130Z,956
2023-05-13T08:34:06.898Z,955.9
2023-05-13T08:35:08.537Z,955.9
2023-05-13T08:36:10.145Z,955.9
2023-05-13T08:37:11.911Z,955.9
2023-05-13T08:38:13.760Z,955.9
2023-05-13T08:39:15.638Z,956
2023-05-13T08:40:17.460Z,955.9
2023-05-13T08:41:22.375Z,955.9
2023-05-13T08:42:24.229Z,955.9
2023-05-13T08:43:26.074Z,955.9
2023-05-13T08:44:27.821Z,955.9
2023-05-13T08:45:29.686Z,955.9
2023-05-13T08:46:32.025Z,955.9
2023-05-13T08:47:37.445Z,955.8
2023-05-13T08:48:39.272Z,955.8
2023-05-13T08:49:41.142Z,955.8
2023-05-13T08:50:42.939Z,955.8
2023-05-13T08:51:44.711Z,955.8
2023-05-13T08:52:46.450Z,955.8
2023-05-13T08:53:48.170Z,955.8
2023-05-13T08:54:50.003Z,955.9
2023-05-13T08:55:51.981Z,955.8
2023-05-13T08:56:53.745Z,955.8
2023-05-13T08:57:55.349Z,955.8
2023-05-13T08:58:57.014Z,955.8
2023-05-13T08:59:58.677Z,955.8
2023-05-13T09:01:00.611Z,955.9
2023-05-13T09:02:02.337Z,955.8
2023-05-13T09:03:04.359Z,955.8
2023-05-13T09:04:06.158Z,955.7
2023-05-13T09:05:08.325Z,955.7
2023-05-13T09:06:10.189Z,955.7
2023-05-13T09:07:12.012Z,955.6
2023-05-13T09:08:13.918Z,955.6
2023-05-13T09:09:15.719Z,955.6
2023-05-13T09:10:17.474Z,955.6
2023-05-13T09:11:19.174Z,955.6
2023-05-13T09:12:20.809Z,955.6
2023-05-13T09:13:22.444Z,955.6
2023-05-13T09:14:24.247Z,955.6
2023-05-13T09:15:26.732Z,955.6
2023-05-13T09:16:28.863Z,955.6
2023-05-13T09:17:31.215Z,955.6
2023-05-13T09:18:33.624Z,955.5
2023-05-13T09:19:36.168Z,955.5
2023-05-13T09:20:38.096Z,955.5
2023-05-13T09:21:39.866Z,955.5
2023-05-13T09:22:41.707Z,955.5
2023-05-13T09:23:43.463Z,955.5
2023-05-13T09:24:45.059Z,955.5
2023-05-13T09:25:47.032Z,955.5
2023-05-13T09:26:48.806Z,955.5
2023-05-13T09:27:50.653Z,955.6
2023-05-13T09:28:52.392Z,955.6
2023-05-13T09:29:54.157Z,955.6
2023-05-13T09:30:56.365Z,955.5
2023-05-13T09:31:58.375Z,955.5
2023-05-13T09:33:00.492Z,955.6
2023-05-13T09:34:02.279Z,955.6
2023-05-13T09:35:03.858Z,955.6
2023-05-13T09:36:05.545Z,955.6
2023-05-13T09:37:07.415Z,955.6
2023-05-13T09:38:09.257Z,955.5
2023-05-13T09:39:11.097Z,955.5
2023-05-13T09:40:12.841Z,955.5
2023-05-13T09:41:14.706Z,955.5
2023-05-13T09:42:16.549Z,955.4
2023-05-13T09:43:18.365Z,955.5
2023-05-13T09:44:20.057Z,955.5
2023-05-13T09:45:22.772Z,955.4
2023-05-13T09:46:24.796Z,955.4
2023-05-13T09:47:26.913Z,955.4
2023-05-13T09:48:29.016Z,955.4
2023-05-13T09:49:31.148Z,955.4
2023-05-13T09:50:32.896Z,955.4
2023-05-13T09:51:34.695Z,955.3
2023-05-13T09:52:36.298Z,955.3
2023-05-13T09:53:37.886Z,955.3
2023-05-13T09:54:39.578Z,955.2
2023-05-13T09:55:41.467Z,955.3
2023-05-13T09:56:43.266Z,955.3
2023-05-13T09:57:45.125Z,955.3
2023-05-13T09:58:46.978Z,955.3
2023-05-13T09:59:48.749Z,955.3
2023-05-13T10:00:53.815Z,955.3
2023-05-13T10:01:55.905Z,955.2
2023-05-13T10:02:57.872Z,955.2
2023-05-13T10:04:00.108Z,955.3
2023-05-13T10:05:02.187Z,955.3
2023-05-13T10:06:04.240Z,955.3
2023-05-13T10:07:06.085Z,955.3
2023-05-13T10:08:08.029Z,955.3
2023-05-13T10:09:09.887Z,955.3
2023-05-13T10:10:11.639Z,955.3
2023-05-13T10:11:15.666Z,955.3
2023-05-13T10:12:17.581Z,955.3
2023-05-13T10:13:19.558Z,955.3
2023-05-13T10:14:21.381Z,955.2
2023-05-13T10:15:23.151Z,955.3
2023-05-13T10:16:25.219Z,955.3
2023-05-13T10:17:27.269Z,955.3
2023-05-13T10:18:29.754Z,955.2
2023-05-13T10:19:31.666Z,955.3
2023-05-13T10:20:33.298Z,955.3
2023-05-13T10:21:34.930Z,955.3
2023-05-13T10:22:36.523Z,955.3
2023-05-13T10:23:38.208Z,955.3
2023-05-13T10:24:39.799Z,955.3
2023-05-13T10:25:41.543Z,955.3
2023-05-13T10:26:43.381Z,955.3
2023-05-13T10:27:45.095Z,955.3
2023-05-13T10:28:46.868Z,955.3
2023-05-13T10:29:48.624Z,955.2
2023-05-13T10:30:53.496Z,955.2
2023-05-13T10:31:55.928Z,955.2
2023-05-13T10:32:57.928Z,955.2
2023-05-13T10:33:59.912Z,955.2
2023-05-13T10:35:01.750Z,955.2
2023-05-13T10:36:03.588Z,955.2
2023-05-13T10:37:05.393Z,955.2
2023-05-13T10:38:07.108Z,955.2
2023-05-13T10:39:08.952Z,955.2
2023-05-13T10:40:10.805Z,955.2
2023-05-13T10:41:12.548Z,955.2
2023-05-13T10:42:14.383Z,955.2
2023-05-13T10:43:16.225Z,955.3
2023-05-13T10:44:18.110Z,955.3
2023-05-13T10:45:19.857Z,955.2
2023-05-13T10:46:21.824Z,955.2
2023-05-13T10:47:24.082Z,955.3
2023-05-13T10:48:26.417Z,955.3
2023-05-13T10:49:28.475Z,955.3
2023-05-13T10:50:30.369Z,955.3
2023-05-13T10:51:32.190Z,955.3
2023-05-13T10:52:33.951Z,955.3
2023-05-13T10:53:35.628Z,955.3
2023-05-13T10:54:37.408Z,955.4
2023-05-13T10:55:39.173Z,955.4
2023-05-13T10:56:41.014Z,955.3
2023-05-13T10:57:42.859Z,955.3
2023-05-13T10:58:45.633Z,955.3
2023-05-13T10:59:48.308Z,955.3
2023-05-13T11:00:50.041Z,955.3
2023-05-13T11:01:51.853Z,955.4
2023-05-13T11:02:54.060Z,955.4
2023-05-13T11:03:56.515Z,955.4
2023-05-13T11:04:58.686Z,955.4
2023-05-13T11:06:00.554Z,955.4
2023-05-13T11:07:02.337Z,955.4
2023-05-13T11:08:04.237Z,955.4
2023-05-13T11:09:05.996Z,955.4
2023-05-13T11:10:07.610Z,955.3
2023-05-13T11:11:09.178Z,955.4
2023-05-13T11:12:10.927Z,955.4
2023-05-13T11:13:12.811Z,955.4
2023-05-13T11:14:14.448Z,955.4
2023-05-13T11:15:16.065Z,955.3
2023-05-13T11:16:17.890Z,955.4
2023-05-13T11:17:19.775Z,955.3
2023-05-13T11:18:21.387Z,955.3
2023-05-13T11:19:23.156Z,955.3
2023-05-13T11:20:24.796Z,955.3
2023-05-13T11:21:26.491Z,955.3
2023-05-13T11:22:28.293Z,955.3
2023-05-13T11:23:29.937Z,955.3
2023-05-13T11:24:31.691Z,955.2
2023-05-13T11:25:33.412Z,955.2
2023-05-13T11:26:35.003Z,955.2
2023-05-13T11:27:36.727Z,955.2
2023-05-13T11:28:38.475Z,955.2
2023-05-13T11:29:40.101Z,955.1
2023-05-13T11:30:41.872Z,955.1
2023-05-13T11:31:44.367Z,955.1
2023-05-13T11:32:46.613Z,955
2023-05-13T11:33:48.348Z,955
2023-05-13T11:34:50.078Z,955
2023-05-13T11:35:51.703Z,955
2023-05-13T11:36:53.395Z,955
2023-05-13T11:38:00.360Z,955
2023-05-13T11:39:02.403Z,955
2023-05-13T11:40:04.347Z,955
2023-05-13T11:41:06.116Z,955
2023-05-13T11:42:08.059Z,954.9
2023-05-13T11:43:09.817Z,954.9
2023-05-13T11:44:11.646Z,954.9
2023-05-13T11:45:13.620Z,954.9
2023-05-13T11:46:15.470Z,954.9
2023-05-13T11:47:17.408Z,954.9
2023-05-13T11:48:19.195Z,954.9
2023-05-13T11:49:21.202Z,954.9
2023-05-13T11:50:23.058Z,954.9
2023-05-13T11:51:24.917Z,954.9
2023-05-13T11:52:26.801Z,954.9
2023-05-13T11:53:28.814Z,954.9
2023-05-13T11:54:30.680Z,954.9
2023-05-13T11:55:32.527Z,954.9
2023-05-13T11:56:34.459Z,954.8
2023-05-13T11:57:36.218Z,954.8
2023-05-13T11:58:38.060Z,954.8
2023-05-13T11:59:48.821Z,954.8
2023-05-13T12:00:50.678Z,954.8
2023-05-13T12:01:52.827Z,954.8
2023-05-13T12:02:55.024Z,954.7
2023-05-13T12:03:57.045Z,954.7
2023-05-13T12:04:58.993Z,954.7
2023-05-13T12:06:00.942Z,954.7
2023-05-13T12:07:02.807Z,954.8
2023-05-13T12:08:07.971Z,954.8
2023-05-13T12:09:10.300Z,954.8
2023-05-13T12:10:12.575Z,954.7
2023-05-13T12:11:14.290Z,954.7
2023-05-13T12:12:16.050Z,954.7
2023-05-13T12:13:17.671Z,954.7
2023-05-13T12:14:19.299Z,954.7
2023-05-13T12:15:22.164Z,954.7
2023-05-13T12:16:25.030Z,954.6
2023-05-13T12:17:27.044Z,954.6
2023-05-13T12:18:29.005Z,954.6
2023-05-13T12:19:30.670Z,954.7
2023-05-13T12:20:32.377Z,954.7
2023-05-13T12:21:34.075Z,954.7
2023-05-13T12:22:35.733Z,954.7
2023-05-13T12:23:37.580Z,954.7
2023-05-13T12:24:39.466Z,954.7
2023-05-13T12:25:41.337Z,954.7
2023-05-13T12:26:43.237Z,954.7
2023-05-13T12:27:44.915Z,954.7
2023-05-13T12:28:46.767Z,954.6
2023-05-13T12:29:48.628Z,954.6
2023-05-13T12:30:50.586Z,954.6
2023-05-13T12:31:52.715Z,954.6
2023-05-13T12:32:55.009Z,954.6
2023-05-13T12:33:56.951Z,954.6
2023-05-13T12:34:58.803Z,954.6
2023-05-13T12:36:00.644Z,954.6
2023-05-13T12:37:02.669Z,954.5
2023-05-13T12:38:04.665Z,954.5
2023-05-13T12:39:06.629Z,954.5
2023-05-13T12:40:08.466Z,954.6
2023-05-13T12:41:10.381Z,954.5
2023-05-13T12:42:12.258Z,954.6
2023-05-13T12:43:14.113Z,954.6
2023-05-13T12:44:15.965Z,954.5
2023-05-13T12:45:17.789Z,954.5
2023-05-13T12:46:19.804Z,954.5
2023-05-13T12:47:21.808Z,954.5
2023-05-13T12:48:23.677Z,954.5
2023-05-13T12:49:25.608Z,954.5
2023-05-13T12:50:27.359Z,954.5
2023-05-13T12:51:29.243Z,954.4
2023-05-13T12:52:31.065Z,954.4
2023-05-13T12:53:32.795Z,954.4
2023-05-13T12:54:34.507Z,954.4
2023-05-13T12:55:36.320Z,954.4
2023-05-13T12:56:38.253Z,954.5
2023-05-13T12:57:40.110Z,954.5
2023-05-13T12:58:41.954Z,954.5
2023-05-13T12:59:43.808Z,954.4
2023-05-13T13:00:45.904Z,954.4
2023-05-13T13:01:48.039Z,954.4
2023-05-13T13:02:50.321Z,954.4
2023-05-13T13:03:52.593Z,954.4
2023-05-13T13:04:57.211Z,954.4
2023-05-13T13:05:59.008Z,954.3
2023-05-13T13:07:00.959Z,954.4
2023-05-13T13:08:02.802Z,954.4
2023-05-13T13:09:04.543Z,954.4
2023-05-13T13:10:06.651Z,954.4
2023-05-13T13:11:08.577Z,954.4
2023-05-13T13:12:10.457Z,954.4
2023-05-13T13:13:12.413Z,954.4
2023-05-13T13:14:14.125Z,954.4
2023-05-13T13:15:15.963Z,954.3
2023-05-13T13:16:18.048Z,954.3
2023-05-13T13:17:20.074Z,954.3
2023-05-13T13:18:21.932Z,954.3
2023-05-13T13:19:24.046Z,954.3
2023-05-13T13:20:25.981Z,954.3
2023-05-13T13:21:30.763Z,954.2